createdAt,value
2018-04-14T00:00:50.364Z,10.68
2018-04-14T00:01:50.349Z,10.72
2018-04-14T00:02:50.306Z,10.69
2018-04-14T00:03:50.312Z,10.75
2018-04-14T00:04:50.310Z,10.71
2018-04-14T00:05:50.250Z,10.69
2018-04-14T00:06:50.236Z,10.68
2018-04-14T00:07:50.214Z,10.71
2018-04-14T00:08:50.189Z,10.71
2018-04-14T00:09:50.195Z,10.69
2018-04-14T00:10:50.177Z,10.67
2018-04-14T00:11:50.140Z,10.67
2018-04-14T00:12:50.101Z,10.61
2018-04-14T00:13:50.095Z,10.64
2018-04-14T00:14:50.097Z,10.68
2018-04-14T00:15:50.038Z,10.69
2018-04-14T00:16:50.041Z,10.68
2018-04-14T00:17:50.058Z,10.64
2018-04-14T00:18:49.984Z,10.69
2018-04-14T00:19:49.969Z,10.64
2018-04-14T00:20:49.952Z,10.64
2018-04-14T00:21:49.927Z,10.69
2018-04-14T00:22:49.904Z,10.74
2018-04-14T00:23:49.889Z,10.75
2018-04-14T00:24:49.868Z,10.72
2018-04-14T00:25:49.851Z,10.67
2018-04-14T00:26:49.855Z,10.60
2018-04-14T00:27:49.835Z,10.54
2018-04-14T00:28:49.826Z,10.54
2018-04-14T00:29:49.774Z,10.60
2018-04-14T00:30:49.793Z,10.54
2018-04-14T00:31:49.749Z,10.54
2018-04-14T00:32:49.723Z,10.54
2018-04-14T00:33:49.706Z,10.54
2018-04-14T00:34:49.700Z,10.51
2018-04-14T00:35:49.681Z,10.61
2018-04-14T00:36:49.640Z,10.51
2018-04-14T00:37:49.642Z,10.49
2018-04-14T00:38:50.183Z,10.56
2018-04-14T00:39:49.579Z,10.56
2018-04-14T00:40:49.555Z,10.56
2018-04-14T00:41:49.554Z,10.51
2018-04-14T00:42:49.533Z,10.56
2018-04-14T00:43:49.496Z,10.56
2018-04-14T00:44:49.480Z,10.59
2018-04-14T00:45:49.483Z,10.54
2018-04-14T00:46:49.468Z,10.49
2018-04-14T00:47:49.429Z,10.44
2018-04-14T00:48:49.414Z,10.51
2018-04-14T00:49:49.372Z,10.49
2018-04-14T00:50:49.352Z,10.56
2018-04-14T00:51:49.354Z,10.56
2018-04-14T00:52:49.318Z,10.56
2018-04-14T00:53:49.282Z,10.56
2018-04-14T00:54:49.275Z,10.60
2018-04-14T00:55:49.241Z,10.60
2018-04-14T00:56:49.262Z,10.56
2018-04-14T00:57:49.245Z,10.56
2018-04-14T00:58:49.196Z,10.60
2018-04-14T00:59:49.214Z,10.56
2018-04-14T01:00:49.209Z,10.57
2018-04-14T01:01:49.162Z,10.51
2018-04-14T01:02:49.114Z,10.51
2018-04-14T01:03:49.100Z,10.54
2018-04-14T01:04:49.071Z,10.56
2018-04-14T01:05:49.063Z,10.51
2018-04-14T01:06:49.032Z,10.49
2018-04-14T01:07:49.011Z,10.53
2018-04-14T01:08:49.070Z,10.48
2018-04-14T01:09:48.969Z,10.49
2018-04-14T01:10:48.992Z,10.38
2018-04-14T01:11:48.935Z,10.46
2018-04-14T01:12:48.911Z,10.41
2018-04-14T01:13:48.921Z,10.38
2018-04-14T01:14:48.873Z,10.46
2018-04-14T01:15:48.853Z,10.41
2018-04-14T01:16:48.852Z,10.56
2018-04-14T01:17:48.820Z,10.34
2018-04-14T01:18:48.798Z,10.41
2018-04-14T01:19:48.783Z,10.42
2018-04-14T01:20:48.778Z,10.42
2018-04-14T01:21:48.778Z,10.42
2018-04-14T01:22:48.715Z,10.37
2018-04-14T01:23:48.686Z,10.51
2018-04-14T01:24:48.704Z,10.44
2018-04-14T01:25:48.668Z,10.44
2018-04-14T01:26:48.645Z,10.42
2018-04-14T01:27:48.639Z,10.53
2018-04-14T01:28:48.596Z,10.46
2018-04-14T01:29:48.601Z,10.37
2018-04-14T01:30:48.549Z,10.42
2018-04-14T01:31:48.548Z,10.40
2018-04-14T01:32:48.515Z,10.42
2018-04-14T01:33:48.493Z,10.40
2018-04-14T01:34:48.496Z,10.30
2018-04-14T01:35:48.450Z,10.31
2018-04-14T01:36:48.440Z,10.34
2018-04-14T01:37:48.412Z,10.31
2018-04-14T01:38:48.409Z,10.22
2018-04-14T01:39:48.408Z,10.25
2018-04-14T01:40:48.361Z,10.25
2018-04-14T01:41:48.326Z,10.17
2018-04-14T01:42:48.323Z,10.20
2018-04-14T01:43:48.333Z,10.20
2018-04-14T01:44:48.297Z,10.17
2018-04-14T01:45:48.271Z,10.15
2018-04-14T01:46:48.246Z,10.17
2018-04-14T01:47:48.210Z,10.16
2018-04-14T01:48:48.263Z,10.15
2018-04-14T01:49:48.195Z,10.19
2018-04-14T01:50:48.180Z,10.13
2018-04-14T01:51:48.144Z,10.04
2018-04-14T01:52:48.141Z,10.05
2018-04-14T01:53:48.091Z,10.12
2018-04-14T01:54:48.732Z,10.07
2018-04-14T01:55:48.077Z,9.98
2018-04-14T01:56:48.027Z,9.95
2018-04-14T01:57:48.020Z,9.99
2018-04-14T01:58:47.988Z,9.95
2018-04-14T01:59:47.970Z,9.86
2018-04-14T02:00:47.965Z,9.80
2018-04-14T02:01:47.926Z,9.77
2018-04-14T02:02:47.926Z,9.69
2018-04-14T02:03:47.910Z,9.58
2018-04-14T02:04:47.890Z,9.68
2018-04-14T02:05:47.850Z,9.61
2018-04-14T02:06:47.869Z,9.51
2018-04-14T02:07:47.814Z,9.47
2018-04-14T02:08:47.812Z,9.34
2018-04-14T02:09:47.797Z,9.41
2018-04-14T02:10:47.769Z,9.36
2018-04-14T02:11:47.735Z,9.26
2018-04-14T02:12:47.712Z,9.10
2018-04-14T02:13:47.712Z,9.13
2018-04-14T02:14:47.667Z,9.02
2018-04-14T02:15:47.638Z,8.95
2018-04-14T02:16:47.629Z,8.87
2018-04-14T02:17:47.631Z,8.69
2018-04-14T02:18:47.604Z,8.71
2018-04-14T02:19:47.578Z,8.76
2018-04-14T02:20:47.594Z,8.67
2018-04-14T02:21:47.559Z,8.73
2018-04-14T02:22:47.514Z,8.61
2018-04-14T02:23:47.524Z,8.58
2018-04-14T02:24:47.503Z,8.52
2018-04-14T02:25:47.446Z,8.51
2018-04-14T02:26:47.423Z,8.38
2018-04-14T02:27:47.394Z,8.42
2018-04-14T02:28:47.374Z,8.30
2018-04-14T02:29:47.373Z,8.26
2018-04-14T02:30:47.341Z,8.20
2018-04-14T02:31:47.329Z,8.16
2018-04-14T02:32:48.203Z,8.18
2018-04-14T02:33:47.300Z,8.15
2018-04-14T02:34:47.262Z,8.10
2018-04-14T02:35:47.233Z,8.15
2018-04-14T02:36:47.245Z,8.12
2018-04-14T02:37:47.255Z,8.15
2018-04-14T02:38:47.194Z,8.19
2018-04-14T02:39:47.177Z,8.16
2018-04-14T02:40:47.133Z,8.19
2018-04-14T02:41:47.119Z,8.30
2018-04-14T02:42:47.100Z,8.16
2018-04-14T02:43:47.066Z,8.19
2018-04-14T02:44:47.061Z,8.13
2018-04-14T02:45:47.040Z,8.15
2018-04-14T02:46:47.040Z,8.12
2018-04-14T02:47:46.997Z,8.10
2018-04-14T02:48:46.965Z,8.05
2018-04-14T02:49:46.939Z,8.00
2018-04-14T02:50:46.942Z,8.05
2018-04-14T02:51:46.945Z,8.01
2018-04-14T02:52:46.885Z,8.03
2018-04-14T02:53:46.867Z,8.10
2018-04-14T02:54:46.872Z,8.03
2018-04-14T02:55:46.837Z,8.08
2018-04-14T02:56:46.822Z,8.03
2018-04-14T02:57:46.799Z,8.10
2018-04-14T02:58:46.806Z,8.05
2018-04-14T02:59:46.741Z,8.08
2018-04-14T03:00:46.737Z,8.06
2018-04-14T03:01:46.711Z,8.05
2018-04-14T03:02:46.719Z,8.08
2018-04-14T03:03:46.653Z,8.09
2018-04-14T03:04:46.650Z,8.08
2018-04-14T03:05:46.642Z,8.00
2018-04-14T03:06:46.615Z,8.01
2018-04-14T03:07:46.565Z,7.97
2018-04-14T03:08:46.574Z,7.91
2018-04-14T03:09:46.544Z,7.87
2018-04-14T03:10:46.508Z,7.87
2018-04-14T03:11:47.207Z,7.88
2018-04-14T03:12:46.485Z,7.80
2018-04-14T03:13:46.442Z,7.77
2018-04-14T03:14:46.442Z,7.75
2018-04-14T03:15:46.460Z,7.70
2018-04-14T03:16:46.393Z,7.73
2018-04-14T03:17:46.397Z,7.69
2018-04-14T03:18:46.345Z,7.67
2018-04-14T03:19:46.339Z,7.63
2018-04-14T03:20:46.325Z,7.56
2018-04-14T03:21:46.283Z,7.56
2018-04-14T03:22:46.258Z,7.57
2018-04-14T03:23:46.262Z,7.58
2018-04-14T03:24:46.248Z,7.47
2018-04-14T03:25:46.228Z,7.53
2018-04-14T03:26:46.166Z,7.54
2018-04-14T03:27:46.164Z,7.54
2018-04-14T03:28:46.161Z,7.50
2018-04-14T03:29:46.129Z,7.51
2018-04-14T03:30:46.095Z,7.51
2018-04-14T03:31:46.090Z,7.54
2018-04-14T03:32:46.052Z,7.39
2018-04-14T03:33:46.045Z,7.56
2018-04-14T03:34:45.997Z,7.43
2018-04-14T03:35:46.007Z,7.56
2018-04-14T03:36:45.961Z,7.53
2018-04-14T03:37:45.965Z,7.51
2018-04-14T03:38:45.920Z,7.48
2018-04-14T03:39:45.909Z,7.54
2018-04-14T03:40:45.916Z,7.56
2018-04-14T03:41:45.890Z,7.56
2018-04-14T03:42:45.842Z,7.58
2018-04-14T03:43:45.869Z,7.58
2018-04-14T03:44:45.794Z,7.67
2018-04-14T03:45:45.790Z,7.57
2018-04-14T03:46:45.792Z,7.66
2018-04-14T03:47:45.729Z,7.66
2018-04-14T03:48:45.702Z,7.66
2018-04-14T03:49:45.724Z,7.70
2018-04-14T03:50:46.244Z,7.70
2018-04-14T03:51:45.648Z,7.70
2018-04-14T03:52:45.646Z,7.66
2018-04-14T03:53:45.627Z,7.63
2018-04-14T03:54:45.584Z,7.70
2018-04-14T03:55:45.588Z,7.66
2018-04-14T03:56:45.575Z,7.67
2018-04-14T03:57:45.556Z,7.75
2018-04-14T03:58:45.504Z,7.82
2018-04-14T03:59:45.484Z,7.77
2018-04-14T04:00:45.459Z,7.79
2018-04-14T04:01:45.480Z,7.70
2018-04-14T04:02:45.413Z,7.67
2018-04-14T04:03:45.407Z,7.73
2018-04-14T04:04:45.406Z,7.76
2018-04-14T04:05:45.353Z,7.73
2018-04-14T04:06:45.338Z,7.77
2018-04-14T04:07:45.321Z,7.88
2018-04-14T04:08:45.315Z,7.82
2018-04-14T04:09:45.273Z,7.87
2018-04-14T04:10:45.252Z,7.91
2018-04-14T04:11:45.227Z,7.94
2018-04-14T04:12:45.247Z,7.85
2018-04-14T04:13:45.268Z,7.90
2018-04-14T04:14:45.183Z,7.88
2018-04-14T04:15:45.164Z,7.93
2018-04-14T04:16:45.128Z,7.90
2018-04-14T04:17:45.105Z,7.98
2018-04-14T04:18:45.074Z,7.97
2018-04-14T04:19:45.073Z,8.06
2018-04-14T04:20:45.033Z,8.03
2018-04-14T04:21:45.035Z,8.06
2018-04-14T04:22:45.005Z,8.08
2018-04-14T04:23:44.978Z,8.09
2018-04-14T04:24:44.957Z,8.13
2018-04-14T04:25:44.934Z,8.13
2018-04-14T04:26:44.937Z,8.15
2018-04-14T04:27:44.922Z,8.18
2018-04-14T04:28:44.868Z,8.15
2018-04-14T04:29:44.858Z,8.18
2018-04-14T04:30:44.829Z,8.30
2018-04-14T04:31:44.813Z,8.27
2018-04-14T04:32:44.807Z,8.27
2018-04-14T04:33:44.800Z,8.30
2018-04-14T04:34:44.785Z,8.30
2018-04-14T04:35:44.775Z,8.27
2018-04-14T04:36:44.700Z,8.30
2018-04-14T04:37:44.691Z,8.41
2018-04-14T04:38:44.671Z,8.36
2018-04-14T04:39:44.663Z,8.30
2018-04-14T04:40:44.620Z,8.41
2018-04-14T04:41:44.611Z,8.36
2018-04-14T04:42:44.605Z,8.44
2018-04-14T04:43:44.560Z,8.37
2018-04-14T04:44:44.540Z,8.44
2018-04-14T04:45:44.518Z,8.42
2018-04-14T04:46:44.492Z,8.42
2018-04-14T04:47:44.469Z,8.46
2018-04-14T04:48:44.476Z,8.46
2018-04-14T04:49:44.480Z,8.42
2018-04-14T04:50:44.433Z,8.44
2018-04-14T04:51:44.389Z,8.51
2018-04-14T04:52:44.381Z,8.46
2018-04-14T04:53:44.395Z,8.48
2018-04-14T04:54:44.367Z,8.48
2018-04-14T04:55:44.307Z,8.45
2018-04-14T04:56:44.282Z,8.37
2018-04-14T04:57:44.263Z,8.34
2018-04-14T04:58:44.269Z,8.34
2018-04-14T04:59:44.261Z,8.36
2018-04-14T05:00:44.311Z,8.26
2018-04-14T05:01:44.210Z,8.27
2018-04-14T05:02:44.170Z,8.24
2018-04-14T05:03:44.139Z,8.23
2018-04-14T05:04:44.249Z,8.24
2018-04-14T05:05:44.104Z,8.15
2018-04-14T05:06:44.095Z,8.13
2018-04-14T05:07:44.090Z,8.18
2018-04-14T05:08:44.039Z,8.18
2018-04-14T05:09:44.097Z,8.13
2018-04-14T05:10:44.022Z,8.15
2018-04-14T05:11:43.986Z,8.12
2018-04-14T05:12:43.986Z,8.12
2018-04-14T05:13:43.934Z,8.06
2018-04-14T05:14:43.968Z,8.01
2018-04-14T05:15:43.995Z,8.05
2018-04-14T05:16:43.881Z,7.94
2018-04-14T05:17:43.867Z,7.94
2018-04-14T05:18:43.890Z,7.87
2018-04-14T05:19:43.834Z,7.90
2018-04-14T05:20:43.851Z,7.90
2018-04-14T05:21:43.789Z,7.94
2018-04-14T05:22:43.768Z,7.85
2018-04-14T05:23:43.774Z,7.85
2018-04-14T05:24:43.724Z,7.82
2018-04-14T05:25:43.728Z,7.83
2018-04-14T05:26:43.709Z,7.79
2018-04-14T05:27:43.685Z,7.75
2018-04-14T05:28:43.687Z,7.80
2018-04-14T05:29:43.658Z,7.79
2018-04-14T05:30:43.652Z,7.76
2018-04-14T05:31:43.559Z,7.80
2018-04-14T05:32:43.552Z,7.73
2018-04-14T05:33:43.544Z,7.82
2018-04-14T05:34:43.527Z,7.83
2018-04-14T05:35:43.473Z,7.77
2018-04-14T05:36:43.490Z,7.79
2018-04-14T05:37:43.458Z,7.77
2018-04-14T05:38:43.414Z,7.72
2018-04-14T05:39:43.408Z,7.77
2018-04-14T05:40:43.385Z,7.69
2018-04-14T05:41:43.371Z,7.67
2018-04-14T05:42:43.343Z,7.70
2018-04-14T05:43:43.326Z,7.70
2018-04-14T05:44:43.327Z,7.61
2018-04-14T05:45:43.290Z,7.79
2018-04-14T05:46:43.239Z,7.79
2018-04-14T05:47:43.256Z,7.94
2018-04-14T05:48:43.236Z,7.90
2018-04-14T05:49:43.184Z,7.95
2018-04-14T05:50:43.177Z,8.05
2018-04-14T05:51:43.161Z,8.09
2018-04-14T05:52:43.177Z,8.15
2018-04-14T05:53:43.114Z,8.26
2018-04-14T05:54:43.179Z,8.30
2018-04-14T05:55:43.094Z,8.48
2018-04-14T05:56:43.041Z,8.52
2018-04-14T05:57:43.045Z,8.60
2018-04-14T05:58:42.999Z,8.61
2018-04-14T05:59:43.003Z,8.74
2018-04-14T06:00:42.991Z,8.94
2018-04-14T06:01:42.939Z,9.13
2018-04-14T06:02:42.923Z,9.28
2018-04-14T06:03:42.902Z,9.68
2018-04-14T06:04:42.925Z,10.01
2018-04-14T06:05:42.938Z,10.46
2018-04-14T06:06:42.863Z,10.68
2018-04-14T06:07:42.855Z,10.81
2018-04-14T06:08:42.830Z,10.97
2018-04-14T06:09:42.788Z,11.07
2018-04-14T06:10:42.748Z,11.15
2018-04-14T06:11:42.749Z,11.11
2018-04-14T06:12:42.704Z,11.17
2018-04-14T06:13:42.696Z,11.19
2018-04-14T06:14:42.767Z,11.51
2018-04-14T06:15:42.658Z,12.00
2018-04-14T06:16:42.627Z,12.67
2018-04-14T06:17:42.635Z,13.31
2018-04-14T06:18:42.587Z,13.95
2018-04-14T06:19:42.609Z,14.72
2018-04-14T06:20:45.261Z,15.33
2018-04-14T06:21:42.577Z,16.02
2018-04-14T06:22:42.541Z,16.81
2018-04-14T06:23:42.494Z,17.52
2018-04-14T06:24:42.578Z,18.19
2018-04-14T06:25:42.434Z,18.68
2018-04-14T06:26:42.430Z,19.19
2018-04-14T06:27:42.513Z,19.67
2018-04-14T06:28:42.532Z,20.02
2018-04-14T06:29:42.381Z,20.25
2018-04-14T06:30:42.397Z,20.59
2018-04-14T06:31:42.349Z,20.74
2018-04-14T06:32:42.367Z,21.11
2018-04-14T06:33:42.317Z,21.40
2018-04-14T06:34:42.354Z,21.82
2018-04-14T06:35:42.276Z,22.38
2018-04-14T06:36:42.254Z,22.47
2018-04-14T06:37:42.291Z,22.80
2018-04-14T06:38:42.251Z,22.76
2018-04-14T06:39:42.203Z,22.28
2018-04-14T06:40:42.194Z,21.80
2018-04-14T06:41:42.164Z,21.30
2018-04-14T06:42:42.147Z,21.11
2018-04-14T06:43:42.145Z,20.82
2018-04-14T06:44:42.133Z,20.55
2018-04-14T06:45:42.112Z,20.37
2018-04-14T06:46:42.070Z,20.36
2018-04-14T06:47:42.360Z,20.03
2018-04-14T06:48:42.182Z,19.99
2018-04-14T06:49:42.937Z,20.10
2018-04-14T06:50:42.042Z,20.24
2018-04-14T06:51:42.058Z,20.06
2018-04-14T06:52:42.006Z,20.16
2018-04-14T06:53:42.027Z,20.25
2018-04-14T06:54:41.953Z,20.32
2018-04-14T06:55:41.931Z,20.10
2018-04-14T06:56:41.909Z,19.85
2018-04-14T06:57:41.916Z,19.76
2018-04-14T06:58:41.911Z,19.99
2018-04-14T06:59:41.879Z,20.48
2018-04-14T07:00:43.214Z,20.70
2018-04-14T07:01:42.916Z,21.36
2018-04-14T07:02:41.809Z,21.99
2018-04-14T07:03:41.828Z,22.35
2018-04-14T07:04:41.829Z,22.07
2018-04-14T07:05:41.789Z,21.45
2018-04-14T07:06:41.785Z,21.06
2018-04-14T07:07:41.759Z,20.69
2018-04-14T07:08:41.717Z,20.77
2018-04-14T07:09:41.710Z,20.51
2018-04-14T07:10:43.213Z,20.39
2018-04-14T07:11:41.676Z,20.63
2018-04-14T07:12:41.658Z,20.67
2018-04-14T07:13:41.759Z,20.29
2018-04-14T07:14:41.621Z,20.50
2018-04-14T07:15:41.622Z,20.88
2018-04-14T07:16:41.609Z,20.69
2018-04-14T07:17:41.604Z,20.78
2018-04-14T07:18:41.562Z,20.78
2018-04-14T07:19:41.549Z,20.44
2018-04-14T07:20:41.566Z,19.99
2018-04-14T07:21:41.511Z,19.48
2018-04-14T07:22:41.534Z,19.48
2018-04-14T07:23:41.473Z,19.70
2018-04-14T07:24:41.477Z,20.02
2018-04-14T07:25:41.550Z,20.26
2018-04-14T07:26:41.503Z,20.65
2018-04-14T07:27:41.432Z,21.15
2018-04-14T07:28:41.410Z,21.73
2018-04-14T07:29:41.476Z,22.32
2018-04-14T07:30:41.391Z,22.84
2018-04-14T07:31:41.374Z,23.58
2018-04-14T07:32:41.362Z,23.99
2018-04-14T07:33:41.373Z,23.98
2018-04-14T07:34:41.321Z,23.86
2018-04-14T07:35:41.344Z,23.86
2018-04-14T07:36:41.297Z,23.95
2018-04-14T07:37:41.289Z,23.98
2018-04-14T07:38:41.284Z,24.05
2018-04-14T07:39:41.256Z,23.96
2018-04-14T07:40:41.240Z,24.02
2018-04-14T07:41:41.235Z,24.38
2018-04-14T07:42:41.224Z,24.77
2018-04-14T07:43:41.214Z,25.13
2018-04-14T07:44:41.277Z,25.36
2018-04-14T07:45:41.180Z,25.17
2018-04-14T07:46:41.189Z,25.58
2018-04-14T07:47:41.168Z,26.00
2018-04-14T07:48:41.145Z,26.68
2018-04-14T07:49:41.138Z,26.85
2018-04-14T07:50:41.247Z,27.30
2018-04-14T07:51:41.133Z,27.71
2018-04-14T07:52:41.103Z,28.05
2018-04-14T07:53:41.091Z,28.15
2018-04-14T07:54:41.105Z,28.25
2018-04-14T07:55:41.830Z,28.35
2018-04-14T07:56:41.079Z,28.39
2018-04-14T07:57:41.080Z,28.05
2018-04-14T07:58:41.036Z,27.63
2018-04-14T07:59:41.117Z,27.32
2018-04-14T08:00:41.054Z,27.35
2018-04-14T08:01:41.027Z,27.27
2018-04-14T08:02:41.019Z,27.55
2018-04-14T08:03:40.986Z,28.01
2018-04-14T08:04:40.969Z,28.25
2018-04-14T08:05:40.951Z,28.41
2018-04-14T08:06:40.947Z,28.96
2018-04-14T08:07:40.961Z,29.14
2018-04-14T08:08:40.951Z,29.22
2018-04-14T08:09:40.935Z,29.35
2018-04-14T08:10:40.912Z,29.32
2018-04-14T08:11:40.939Z,29.71
2018-04-14T08:12:40.892Z,29.79
2018-04-14T08:13:40.908Z,29.68
2018-04-14T08:14:40.903Z,29.54
2018-04-14T08:15:40.893Z,29.32
2018-04-14T08:16:40.842Z,29.13
2018-04-14T08:17:40.872Z,29.02
2018-04-14T08:18:40.869Z,28.84
2018-04-14T08:19:40.843Z,29.26
2018-04-14T08:20:40.897Z,29.76
2018-04-14T08:21:40.829Z,30.27
2018-04-14T08:22:40.828Z,30.31
2018-04-14T08:23:40.824Z,30.12
2018-04-14T08:24:40.854Z,29.60
2018-04-14T08:25:40.825Z,29.14
2018-04-14T08:26:40.794Z,29.53
2018-04-14T08:27:40.835Z,29.78
2018-04-14T08:28:40.833Z,30.31
2018-04-14T08:29:40.744Z,30.57
2018-04-14T08:30:40.740Z,31.06
2018-04-14T08:31:40.731Z,31.17
2018-04-14T08:32:40.728Z,31.05
2018-04-14T08:33:40.734Z,31.25
2018-04-14T08:34:40.704Z,31.43
2018-04-14T08:35:40.718Z,31.24
2018-04-14T08:36:40.723Z,30.90
2018-04-14T08:37:40.778Z,30.59
2018-04-14T08:38:40.740Z,30.51
2018-04-14T08:39:40.695Z,30.84
2018-04-14T08:40:40.690Z,31.12
2018-04-14T08:41:40.671Z,31.29
2018-04-14T08:42:40.668Z,31.37
2018-04-14T08:43:40.692Z,31.46
2018-04-14T08:44:40.716Z,31.66
2018-04-14T08:45:40.640Z,32.16
2018-04-14T08:46:40.819Z,32.03
2018-04-14T08:47:40.618Z,30.94
2018-04-14T08:48:40.678Z,29.73
2018-04-14T08:49:40.723Z,28.42
2018-04-14T08:50:40.588Z,27.02
2018-04-14T08:51:40.585Z,25.75
2018-04-14T08:52:40.654Z,24.73
2018-04-14T08:53:40.715Z,24.16
2018-04-14T08:54:40.549Z,23.56
2018-04-14T08:55:40.539Z,22.90
2018-04-14T08:56:40.528Z,22.38
2018-04-14T08:57:40.546Z,21.95
2018-04-14T08:58:40.532Z,21.60
2018-04-14T08:59:40.519Z,21.29
2018-04-14T09:00:40.513Z,21.21
2018-04-14T09:01:40.492Z,21.07
2018-04-14T09:02:40.478Z,20.92
2018-04-14T09:03:40.457Z,20.78
2018-04-14T09:04:40.445Z,20.69
2018-04-14T09:05:40.434Z,20.65
2018-04-14T09:06:40.423Z,20.51
2018-04-14T09:07:40.483Z,20.13
2018-04-14T09:08:40.475Z,19.73
2018-04-14T09:09:40.409Z,19.63
2018-04-14T09:10:40.379Z,19.30
2018-04-14T09:11:40.368Z,19.15
2018-04-14T09:12:40.354Z,19.16
2018-04-14T09:13:40.386Z,19.19
2018-04-14T09:14:40.391Z,19.16
2018-04-14T09:15:40.308Z,19.16
2018-04-14T09:16:40.319Z,20.32
2018-04-14T09:17:40.285Z,21.54
2018-04-14T09:18:40.282Z,22.76
2018-04-14T09:19:40.267Z,24.13
2018-04-14T09:20:40.259Z,25.04
2018-04-14T09:21:40.223Z,24.76
2018-04-14T09:22:40.220Z,24.13
2018-04-14T09:23:40.200Z,23.40
2018-04-14T09:24:40.203Z,22.78
2018-04-14T09:25:40.170Z,22.10
2018-04-14T09:26:40.182Z,21.45
2018-04-14T09:27:40.163Z,21.11
2018-04-14T09:28:40.139Z,20.70
2018-04-14T09:29:40.127Z,20.50
2018-04-14T09:30:40.112Z,20.36
2018-04-14T09:31:40.097Z,20.11
2018-04-14T09:32:40.087Z,19.96
2018-04-14T09:33:40.078Z,19.63
2018-04-14T09:34:40.061Z,19.48
2018-04-14T09:35:40.049Z,19.33
2018-04-14T09:36:40.051Z,19.09
2018-04-14T09:37:40.019Z,19.11
2018-04-14T09:38:40.016Z,19.02
2018-04-14T09:39:39.998Z,19.09
2018-04-14T09:40:40.008Z,19.19
2018-04-14T09:41:40.042Z,19.64
2018-04-14T09:42:39.978Z,19.76
2018-04-14T09:43:39.934Z,19.63
2018-04-14T09:44:39.925Z,19.51
2018-04-14T09:45:39.897Z,19.29
2018-04-14T09:46:39.899Z,19.15
2018-04-14T09:47:39.894Z,18.81
2018-04-14T09:48:39.892Z,18.63
2018-04-14T09:49:39.842Z,18.58
2018-04-14T09:50:39.835Z,18.59
2018-04-14T09:51:39.842Z,18.63
2018-04-14T09:52:39.839Z,18.66
2018-04-14T09:53:39.788Z,18.74
2018-04-14T09:54:39.770Z,18.81
2018-04-14T09:55:39.759Z,18.98
2018-04-14T09:56:39.763Z,19.15
2018-04-14T09:57:39.728Z,19.26
2018-04-14T09:58:39.764Z,19.22
2018-04-14T09:59:39.822Z,19.11
2018-04-14T10:00:39.700Z,19.16
2018-04-14T10:01:39.676Z,19.16
2018-04-14T10:02:39.650Z,19.29
2018-04-14T10:03:39.636Z,19.34
2018-04-14T10:04:39.620Z,19.26
2018-04-14T10:05:39.644Z,19.26
2018-04-14T10:06:39.614Z,19.36
2018-04-14T10:07:39.587Z,19.55
2018-04-14T10:08:39.564Z,19.66
2018-04-14T10:09:39.547Z,19.70
2018-04-14T10:10:39.545Z,19.89
2018-04-14T10:11:39.522Z,20.11
2018-04-14T10:12:39.498Z,20.36
2018-04-14T10:13:39.492Z,20.37
2018-04-14T10:14:39.496Z,20.62
2018-04-14T10:15:39.460Z,20.72
2018-04-14T10:16:39.449Z,20.99
2018-04-14T10:17:39.435Z,21.09
2018-04-14T10:18:39.419Z,21.11
2018-04-14T10:19:39.434Z,20.95
2018-04-14T10:20:39.386Z,20.81
2018-04-14T10:21:39.378Z,20.63
2018-04-14T10:22:39.357Z,20.43
2018-04-14T10:23:39.364Z,20.25
2018-04-14T10:24:39.337Z,20.13
2018-04-14T10:25:39.320Z,19.89
2018-04-14T10:26:39.313Z,19.63
2018-04-14T10:27:39.299Z,19.55
2018-04-14T10:28:39.288Z,19.45
2018-04-14T10:29:39.271Z,19.34
2018-04-14T10:30:39.280Z,19.27
2018-04-14T10:31:39.239Z,19.12
2018-04-14T10:32:39.214Z,18.88
2018-04-14T10:33:39.208Z,18.71
2018-04-14T10:34:39.200Z,18.60
2018-04-14T10:35:39.188Z,18.49
2018-04-14T10:36:39.175Z,18.62
2018-04-14T10:37:39.194Z,18.58
2018-04-14T10:38:39.143Z,18.65
2018-04-14T10:39:39.152Z,19.37
2018-04-14T10:40:39.121Z,20.41
2018-04-14T10:41:39.092Z,21.70
2018-04-14T10:42:39.075Z,22.57
2018-04-14T10:43:39.064Z,23.65
2018-04-14T10:44:39.046Z,24.11
2018-04-14T10:45:39.034Z,24.03
2018-04-14T10:46:39.015Z,23.56
2018-04-14T10:47:39.008Z,23.56
2018-04-14T10:48:38.990Z,23.56
2018-04-14T10:49:38.987Z,23.71
2018-04-14T10:50:38.985Z,24.10
2018-04-14T10:51:38.966Z,24.68
2018-04-14T10:52:38.971Z,25.04
2018-04-14T10:53:38.968Z,25.31
2018-04-14T10:54:38.940Z,25.81
2018-04-14T10:55:38.917Z,26.09
2018-04-14T10:56:38.904Z,26.48
2018-04-14T10:57:38.899Z,26.92
2018-04-14T10:58:38.883Z,27.37
2018-04-14T10:59:38.883Z,28.05
2018-04-14T11:00:38.871Z,28.88
2018-04-14T11:01:38.856Z,29.39
2018-04-14T11:02:38.886Z,28.54
2018-04-14T11:03:38.853Z,28.51
2018-04-14T11:04:38.829Z,29.14
2018-04-14T11:05:38.829Z,29.29
2018-04-14T11:06:38.807Z,28.60
2018-04-14T11:07:38.835Z,27.87
2018-04-14T11:08:38.797Z,28.00
2018-04-14T11:09:38.789Z,28.19
2018-04-14T11:10:38.781Z,28.17
2018-04-14T11:11:38.783Z,29.14
2018-04-14T11:12:38.770Z,30.21
2018-04-14T11:13:38.753Z,30.68
2018-04-14T11:14:38.758Z,29.66
2018-04-14T11:15:38.741Z,28.47
2018-04-14T11:16:38.730Z,28.84
2018-04-14T11:17:38.792Z,29.56
2018-04-14T11:18:38.716Z,29.81
2018-04-14T11:19:38.705Z,30.61
2018-04-14T11:20:38.694Z,31.55
2018-04-14T11:21:38.720Z,32.70
2018-04-14T11:22:38.702Z,33.45
2018-04-14T11:23:38.681Z,32.26
2018-04-14T11:24:38.693Z,30.78
2018-04-14T11:25:38.673Z,29.23
2018-04-14T11:26:38.685Z,27.78
2018-04-14T11:27:38.655Z,27.85
2018-04-14T11:28:38.641Z,28.84
2018-04-14T11:29:38.642Z,30.18
2018-04-14T11:30:38.617Z,30.91
2018-04-14T11:31:38.654Z,31.78
2018-04-14T11:32:38.614Z,31.20
2018-04-14T11:33:38.622Z,29.91
2018-04-14T11:34:38.623Z,28.75
2018-04-14T11:35:38.584Z,27.85
2018-04-14T11:36:38.589Z,27.12
2018-04-14T11:37:38.616Z,26.31
2018-04-14T11:38:38.605Z,25.58
2018-04-14T11:39:38.566Z,25.07
2018-04-14T11:40:38.567Z,24.65
2018-04-14T11:41:38.548Z,24.10
2018-04-14T11:42:38.537Z,23.83
2018-04-14T11:43:38.540Z,23.59
2018-04-14T11:44:38.569Z,23.58
2018-04-14T11:45:38.528Z,23.73
2018-04-14T11:46:38.504Z,23.99
2018-04-14T11:47:38.505Z,24.23
2018-04-14T11:48:38.493Z,25.46
2018-04-14T11:49:38.481Z,27.20
2018-04-14T11:50:38.474Z,28.33
2018-04-14T11:51:38.463Z,28.52
2018-04-14T11:52:38.466Z,29.05
2018-04-14T11:53:38.452Z,29.59
2018-04-14T11:54:38.441Z,29.79
2018-04-14T11:55:38.424Z,30.46
2018-04-14T11:56:38.403Z,31.54
2018-04-14T11:57:38.405Z,32.53
2018-04-14T11:58:38.385Z,32.95
2018-04-14T11:59:38.385Z,32.52
2018-04-14T12:00:38.371Z,32.04
2018-04-14T12:01:38.379Z,32.19
2018-04-14T12:02:38.380Z,32.75
2018-04-14T12:03:38.396Z,32.23
2018-04-14T12:04:38.366Z,31.58
2018-04-14T12:05:38.338Z,31.18
2018-04-14T12:06:38.343Z,30.23
2018-04-14T12:07:38.354Z,30.18
2018-04-14T12:08:38.312Z,31.37
2018-04-14T12:09:38.341Z,31.62
2018-04-14T12:10:38.324Z,30.94
2018-04-14T12:11:38.309Z,30.05
2018-04-14T12:12:38.276Z,29.32
2018-04-14T12:13:38.283Z,29.44
2018-04-14T12:14:38.318Z,30.00
2018-04-14T12:15:38.268Z,29.65
2018-04-14T12:16:38.287Z,28.97
2018-04-14T12:17:38.276Z,28.39
2018-04-14T12:18:38.240Z,27.70
2018-04-14T12:19:38.221Z,26.74
2018-04-14T12:20:38.327Z,26.52
2018-04-14T12:21:38.226Z,27.63
2018-04-14T12:22:38.218Z,29.24
2018-04-14T12:23:38.207Z,30.40
2018-04-14T12:24:38.226Z,30.91
2018-04-14T12:25:38.174Z,30.24
2018-04-14T12:26:38.183Z,29.50
2018-04-14T12:27:38.168Z,28.57
2018-04-14T12:28:38.152Z,28.11
2018-04-14T12:29:38.306Z,27.42
2018-04-14T12:30:38.162Z,26.63
2018-04-14T12:31:38.133Z,26.05
2018-04-14T12:32:38.180Z,26.36
2018-04-14T12:33:38.117Z,27.71
2018-04-14T12:34:38.161Z,28.93
2018-04-14T12:35:38.106Z,29.08
2018-04-14T12:36:38.169Z,28.69
2018-04-14T12:37:38.083Z,28.08
2018-04-14T12:38:38.065Z,27.33
2018-04-14T12:39:38.137Z,26.60
2018-04-14T12:40:38.069Z,26.36
2018-04-14T12:41:38.055Z,27.21
2018-04-14T12:42:38.064Z,28.01
2018-04-14T12:43:38.034Z,27.73
2018-04-14T12:44:38.028Z,28.33
2018-04-14T12:45:38.006Z,29.31
2018-04-14T12:46:38.007Z,28.96
2018-04-14T12:47:37.990Z,28.19
2018-04-14T12:48:37.987Z,27.27
2018-04-14T12:49:38.002Z,26.63
2018-04-14T12:50:37.953Z,26.05
2018-04-14T12:51:37.981Z,25.43
2018-04-14T12:52:37.952Z,25.11
2018-04-14T12:53:37.935Z,25.93
2018-04-14T12:54:38.879Z,27.21
2018-04-14T12:55:37.933Z,28.57
2018-04-14T12:56:37.920Z,30.02
2018-04-14T12:57:37.908Z,31.28
2018-04-14T12:58:37.904Z,32.01
2018-04-14T12:59:37.871Z,33.05
2018-04-14T13:00:37.884Z,33.98